Time;durP1;ratioP1;P1;durP2;ratioP2;P2;SDS_P1;SDS_P2;PMS_P1;PMS_P2;Temp;Humidity;BMP_temperature;BMP_pressure;BME280_temperature;BME280_humidity;BME280_pressure;Samples;Min_cycle;Max_cycle;Signal;HPM_P1;HPM_P2
2023/03/01 00:02:06;;;;;;;12.68;6.85;;;-5.10;99.90;;;-6.70;100.00;102268.13;5037290;28;20033;-80
2023/03/01 00:04:32;;;;;;;18.20;8.88;;;-5.10;99.90;;;-6.58;100.00;102275.59;5048452;28;20048;-80
2023/03/01 00:06:57;;;;;;;12.95;7.35;;;-5.00;99.90;;;-6.63;100.00;102279.38;5046251;28;20021;-79
2023/03/01 00:09:23;;;;;;;13.32;7.28;;;-5.00;99.90;;;-6.80;100.00;102281.78;5049911;28;20032;-79
2023/03/01 00:11:49;;;;;;;15.98;7.63;;;-5.10;99.90;;;-6.87;100.00;102280.34;5050961;28;20044;-80
2023/03/01 00:14:17;;;;;;;15.18;6.78;;;-5.10;99.90;;;-6.90;100.00;102283.09;5044401;28;20025;-79
2023/03/01 00:16:44;;;;;;;16.10;6.70;;;-5.10;99.90;;;-6.93;100.00;102291.19;5052874;28;20488;-79
2023/03/01 00:19:17;;;;;;;13.18;7.53;;;-5.10;99.90;;;-7.04;100.00;102265.06;5052399;28;20041;-79
2023/03/01 00:21:43;;;;;;;13.07;6.68;;;-5.20;99.90;;;-7.09;100.00;102275.00;5064788;28;20595;-78
2023/03/01 00:24:10;;;;;;;15.23;7.20;;;-5.30;99.90;;;-7.14;100.00;102280.53;5059511;28;20507;-80
2023/03/01 00:26:36;;;;;;;12.88;6.65;;;-5.30;99.90;;;-7.16;100.00;102286.81;5055970;28;20037;-80
2023/03/01 00:29:03;;;;;;;12.65;6.47;;;-5.40;99.90;;;-7.18;100.00;102283.34;5043239;28;20037;-79
2023/03/01 00:31:32;;;;;;;12.70;6.82;;;-5.40;99.90;;;-7.16;100.00;102278.84;5040887;28;20095;-80
2023/03/01 00:34:02;;;;;;;13.63;6.50;;;-5.40;99.90;;;-7.03;100.00;102273.91;5043278;28;20033;-79
2023/03/01 00:36:36;;;;;;;14.30;6.65;;;-5.30;99.90;;;-6.94;100.00;102278.84;5044538;28;20060;-79
2023/03/01 00:39:05;;;;;;;10.23;5.65;;;-5.20;99.90;;;-6.99;100.00;102273.72;5057977;28;20041;-79
2023/03/01 00:41:33;;;;;;;14.70;7.05;;;-5.20;99.90;;;-6.84;100.00;102277.53;5038011;28;20466;-79
2023/03/01 00:43:59;;;;;;;;;;;-5.20;99.90;;;-6.81;100.00;102272.09;5050084;28;20049;-79
2023/03/01 00:46:27;;;;;;;12.30;6.88;;;-5.20;99.90;;;-6.86;100.00;102268.78;5052263;28;20356;-79
2023/03/01 00:48:53;;;;;;;;;;;-5.20;99.90;;;-6.78;100.00;102260.47;5042316;28;20087;-79
2023/03/01 00:51:24;;;;;;;12.43;7.03;;;-5.10;99.90;;;-6.72;100.00;102270.88;5037972;28;19917;-78
2023/03/01 00:53:56;;;;;;;13.27;7.32;;;-5.10;99.90;;;-6.63;100.00;102276.72;5052821;28;20052;-79
2023/03/01 00:56:23;;;;;;;12.57;6.75;;;-5.00;99.90;;;-6.58;100.00;102266.75;5038863;28;20029;-78
2023/03/01 00:58:48;;;;;;;13.18;6.97;;;-5.00;99.90;;;-6.64;100.00;102267.88;5057338;28;20087;-80
2023/03/01 01:01:22;;;;;;;13.50;6.72;;;-5.00;99.90;;;-6.83;100.00;102259.81;5049703;28;20041;-79
2023/03/01 01:03:56;;;;;;;15.88;7.63;;;-5.10;99.90;;;-6.97;100.00;102265.69;5050226;28;20033;-80
2023/03/01 01:06:27;;;;;;;12.70;7.05;;;-5.20;99.90;;;-7.06;100.00;102271.38;5037592;28;20563;-80
2023/03/01 01:08:54;;;;;;;12.00;6.28;;;-5.30;99.90;;;-7.19;100.00;102263.91;5052974;28;20124;-78
2023/03/01 01:11:23;;;;;;;13.50;6.65;;;-5.40;99.90;;;-7.36;100.00;102259.28;5059319;28;20025;-79
2023/03/01 01:13:51;;;;;;;14.57;7.53;;;-5.50;99.90;;;-7.44;100.00;102262.22;5040978;28;20479;-80
2023/03/01 01:16:19;;;;;;;13.63;7.32;;;-5.60;99.90;;;-7.52;100.00;102264.31;5041041;28;20073;-80
2023/03/01 01:18:45;;;;;;;12.32;6.63;;;-5.70;99.90;;;-7.59;100.00;102260.19;5039637;28;20508;-79
2023/03/01 01:21:18;;;;;;;13.55;7.07;;;-5.70;99.90;;;-7.62;100.00;102263.78;5035804;28;20037;-80
2023/03/01 01:23:45;;;;;;;13.50;7.10;;;-5.80;99.90;;;-7.62;100.00;102255.00;5054600;28;20424;-78
2023/03/01 01:26:19;;;;;;;12.63;6.38;;;-5.80;99.90;;;-7.67;100.00;102260.47;5061013;28;20060;-79
2023/03/01 01:28:46;;;;;;;14.50;6.78;;;-5.90;99.90;;;-7.57;100.00;102245.91;5035607;28;20037;-80
2023/03/01 01:31:12;;;;;;;16.13;7.78;;;-5.80;99.90;;;-7.51;100.00;102250.13;5045070;28;20044;-79
2023/03/01 01:33:38;;;;;;;14.80;7.57;;;-5.70;99.90;;;-7.23;100.00;102246.38;5051320;28;20768;-81
2023/03/01 01:36:06;;;;;;;15.38;6.97;;;-5.60;99.90;;;-7.31;100.00;102246.69;5046604;28;20116;-80
2023/03/01 01:38:32;;;;;;;14.13;7.60;;;-5.60;99.90;;;-7.47;100.00;102235.81;5043018;28;20037;-79
2023/03/01 01:40:58;;;;;;;16.08;7.75;;;-5.60;99.90;;;-7.46;100.00;102237.53;5034329;28;20045;-80
2023/03/01 01:43:35;;;;;;;15.25;7.82;;;-5.70;99.90;;;-7.37;100.00;102236.31;5060901;28;20040;-80
2023/03/01 01:46:29;;;;;;;16.45;8.02;;;-5.60;99.90;;;-7.38;100.00;102232.81;5038590;28;20113;-80
2023/03/01 01:49:05;;;;;;;15.73;8.10;;;-5.60;99.90;;;-7.41;100.00;102234.72;5040801;28;20044;-78
2023/03/01 01:51:40;;;;;;;13.32;7.68;;;-5.60;99.90;;;-7.40;100.00;102234.69;5058585;28;20037;-79
2023/03/01 01:54:20;;;;;;;14.82;8.15;;;-5.60;99.90;;;-7.47;100.00;102225.22;5044410;28;20045;-80
2023/03/01 01:56:54;;;;;;;18.27;8.55;;;-5.60;99.90;;;-7.52;100.00;102221.88;5034372;28;20026;-80
2023/03/01 01:59:24;;;;;;;14.52;7.75;;;-5.70;99.90;;;-7.60;100.00;102221.34;5038869;28;20025;-81
2023/03/01 02:01:52;;;;;;;16.08;8.05;;;-5.80;99.90;;;-7.58;100.00;102235.38;5051247;28;20127;-79
2023/03/01 02:04:19;;;;;;;16.58;7.53;;;-5.70;99.90;;;-7.53;100.00;102228.13;5050129;28;20039;-79
2023/03/01 02:07:13;;;;;;;17.75;8.38;;;-5.80;99.90;;;-7.56;100.00;102221.16;5051080;28;20042;-80
2023/03/01 02:09:40;;;;;;;16.60;8.10;;;-5.70;99.90;;;-7.62;100.00;102215.22;5036339;28;20037;-79
2023/03/01 02:12:06;;;;;;;14.60;7.72;;;-5.80;99.90;;;-7.64;100.00;102222.38;5062577;28;20236;-78
2023/03/01 02:14:33;;;;;;;18.85;7.80;;;-5.90;99.90;;;-7.66;100.00;102207.41;5044546;28;20056;-78
2023/03/01 02:16:59;;;;;;;15.05;7.85;;;-5.90;99.90;;;-7.68;100.00;102206.59;5052661;28;20444;-79
2023/03/01 02:20:09;;;;;;;16.58;7.80;;;-5.90;99.90;;;-7.71;100.00;102214.63;5040738;28;20060;-79
2023/03/01 02:22:38;;;;;;;14.30;7.60;;;-6.00;99.90;;;-7.91;100.00;102188.06;5034934;28;20436;-79
2023/03/01 02:26:13;;;;;;;14.95;8.10;;;-6.00;99.90;;;-7.84;100.00;102214.25;5047401;28;20051;-79
2023/03/01 02:28:43;;;;;;;12.77;7.53;;;-6.00;99.90;;;-7.99;100.00;102199.78;5008762;28;20138;-79
2023/03/01 02:34:00;;;;;;;16.63;7.78;;;-6.10;99.90;;;-7.87;100.00;102201.13;5038482;28;20033;-78
2023/03/01 02:36:38;;;;;;;13.55;7.10;;;-6.10;99.90;;;-7.54;100.00;102208.72;5049598;28;20442;-78
2023/03/01 02:39:14;;;;;;;16.88;7.78;;;-5.90;99.90;;;-7.38;100.00;102202.78;5038197;28;20327;-79
2023/03/01 02:41:47;;;;;;;11.77;6.60;;;-5.70;99.90;;;-7.38;100.00;102198.34;5049119;28;20052;-79
2023/03/01 02:44:13;;;;;;;14.02;6.85;;;-5.70;99.90;;;-7.47;100.00;102196.03;5035914;28;20061;-79
2023/03/01 02:46:54;;;;;;;14.48;7.18;;;-5.70;99.90;;;-7.44;100.00;102184.47;5048332;28;20533;-79
2023/03/01 02:49:30;;;;;;;12.60;6.68;;;-5.70;99.90;;;-7.39;100.00;102187.78;5061880;28;20030;-78
2023/03/01 02:52:32;;;;;;;14.98;7.20;;;-5.70;99.90;;;-7.32;100.00;102191.91;5051116;28;20032;-79
2023/03/01 02:55:08;;;;;;;14.48;6.20;;;-5.60;99.90;;;-7.29;100.00;102190.94;5032454;28;20167;-78
2023/03/01 02:57:39;;;;;;;15.95;6.68;;;-5.60;99.90;;;-7.26;100.00;102186.38;5047861;28;20072;-79
2023/03/01 03:00:18;;;;;;;15.43;6.95;;;-5.50;99.90;;;-7.21;100.00;102188.81;5054076;28;20033;-78
2023/03/01 03:02:46;;;;;;;14.95;6.57;;;-5.40;99.90;;;-7.22;100.00;102179.13;5032856;28;20037;-78
2023/03/01 03:05:22;;;;;;;16.92;8.05;;;-5.40;99.90;;;-7.37;100.00;102180.63;5054340;28;20028;-79
2023/03/01 03:07:52;;;;;;;14.23;6.53;;;-5.50;99.90;;;-7.56;100.00;102172.56;5047321;28;20026;-78
2023/03/01 03:10:30;;;;;;;11.53;6.20;;;-5.70;99.90;;;-7.78;100.00;102172.56;5031192;28;20188;-79
2023/03/01 03:13:00;;;;;;;14.30;6.77;;;-5.90;99.90;;;-7.95;100.00;102161.69;5039225;28;20037;-78
2023/03/01 03:15:28;;;;;;;13.63;6.75;;;-6.10;99.90;;;-7.99;100.00;102165.34;5047850;28;20380;-78
2023/03/01 03:17:57;;;;;;;14.23;6.90;;;-6.10;99.90;;;-7.98;100.00;102160.94;5048058;28;20805;-78
2023/03/01 03:20:24;;;;;;;;;;;-6.20;99.90;;;-7.95;100.00;102166.09;5032114;28;20378;-79
2023/03/01 03:22:53;;;;;;;14.80;7.32;;;-6.10;99.90;;;-7.86;100.00;102163.09;5041403;28;19923;-79
2023/03/01 03:25:20;;;;;;;13.40;7.10;;;-6.00;99.90;;;-7.82;100.00;102167.38;5038071;28;20499;-80
2023/03/01 03:27:49;;;;;;;15.25;7.55;;;-5.90;99.90;;;-7.94;100.00;102151.94;5044267;28;20060;-78
2023/03/01 03:30:19;;;;;;;18.05;8.05;;;-6.00;99.90;;;-7.91;100.00;102150.97;5034576;28;20030;-79
2023/03/01 03:32:53;;;;;;;17.63;8.25;;;-6.00;99.90;;;-7.85;100.00;102159.53;5036482;28;20099;-78
2023/03/01 03:35:39;;;;;;;16.90;8.13;;;-6.00;99.90;;;-7.86;100.00;102154.28;5034648;28;20496;-79
2023/03/01 03:38:15;;;;;;;16.58;8.38;;;-6.00;99.90;;;-7.95;100.00;102151.09;5036123;28;20037;-79
2023/03/01 03:40:45;;;;;;;16.10;8.07;;;-6.10;99.90;;;-8.05;100.00;102149.69;5056228;28;22196;-78
2023/03/01 03:43:18;;;;;;;15.88;7.88;;;-6.20;99.90;;;-8.06;100.00;102147.97;5041120;28;20055;-77
2023/03/01 03:45:45;;;;;;;16.27;7.93;;;-6.20;99.90;;;-8.02;100.00;102149.56;5048201;28;20538;-79
2023/03/01 03:48:11;;;;;;;;;;;-6.20;99.90;;;-7.94;100.00;102144.00;5047568;28;20098;-78
2023/03/01 03:50:39;;;;;;;15.43;8.07;;;-6.10;99.90;;;-7.80;100.00;102152.28;5037376;28;20376;-79
2023/03/01 03:53:09;;;;;;;16.73;7.97;;;-6.00;99.90;;;-7.73;100.00;102155.53;5062298;28;20127;-79
2023/03/01 03:55:38;;;;;;;13.18;7.85;;;-5.80;99.90;;;-7.72;100.00;102149.31;5036125;28;20037;-80
2023/03/01 03:58:07;;;;;;;16.00;8.23;;;-5.80;99.90;;;-7.71;100.00;102153.69;5042320;28;20032;-79
2023/03/01 04:00:36;;;;;;;17.05;8.07;;;-5.80;99.90;;;-7.72;100.00;102151.09;5045182;28;20037;-79
2023/03/01 04:03:03;;;;;;;16.17;8.30;;;-5.80;99.90;;;-7.78;100.00;102157.50;5044449;28;20054;-79
2023/03/01 04:05:30;;;;;;;16.15;8.15;;;-5.80;99.90;;;-7.87;100.00;102155.22;5056833;28;20033;-79
2023/03/01 04:08:02;;;;;;;17.73;8.23;;;-5.90;99.90;;;-7.86;100.00;102157.78;5035503;28;20106;-79
2023/03/01 04:10:41;;;;;;;14.40;7.80;;;-6.00;99.90;;;-7.80;100.00;102157.56;5046220;28;20107;-78
2023/03/01 04:13:15;;;;;;;14.07;8.05;;;-5.90;99.90;;;-7.80;100.00;102160.22;5039881;28;20061;-79
2023/03/01 04:15:42;;;;;;;18.88;8.73;;;-5.90;99.90;;;-7.79;100.00;102161.06;5042828;28;20044;-78
2023/03/01 04:18:12;;;;;;;15.10;8.13;;;-5.90;99.90;;;-7.76;100.00;102155.66;5060775;28;20626;-78
2023/03/01 04:20:38;;;;;;;15.25;7.93;;;-5.80;99.90;;;-7.71;100.00;102163.44;5048310;28;20052;-77
2023/03/01 04:23:20;;;;;;;15.30;7.70;;;-5.80;99.90;;;-7.75;100.00;102162.69;5028872;28;20029;-77
2023/03/01 04:25:58;;;;;;;15.93;8.18;;;-5.80;99.90;;;-7.81;100.00;102162.94;5050462;28;20372;-75
2023/03/01 04:28:33;;;;;;;17.53;7.93;;;-5.90;99.90;;;-7.96;100.00;102154.66;5047431;28;20043;-76
2023/03/01 04:31:12;;;;;;;13.73;7.88;;;-6.00;99.90;;;-8.03;100.00;102166.41;5046451;28;20297;-77
2023/03/01 04:33:44;;;;;;;16.02;7.75;;;-6.10;99.90;;;-8.14;100.00;102172.09;5040655;28;20067;-77
2023/03/01 04:36:12;;;;;;;18.33;8.43;;;-6.20;99.90;;;-8.19;100.00;102159.97;5042023;28;20080;-77
2023/03/01 04:38:39;;;;;;;19.52;8.20;;;-6.30;99.90;;;-8.27;100.00;102163.75;5037950;28;20043;-79
2023/03/01 04:41:08;;;;;;;14.48;7.63;;;-6.40;99.90;;;-8.29;100.00;102170.03;5045600;28;20037;-77
2023/03/01 04:43:35;;;;;;;15.20;7.75;;;-6.50;99.90;;;-8.34;100.00;102170.19;5042573;28;20441;-77
2023/03/01 04:46:11;;;;;;;14.07;7.20;;;-6.50;99.90;;;-8.41;100.00;102158.13;5036052;28;20448;-76
2023/03/01 04:48:40;;;;;;;16.00;7.32;;;-6.60;99.90;;;-8.45;100.00;102159.16;5052893;28;20037;-75
2023/03/01 04:51:08;;;;;;;12.98;7.65;;;-6.60;99.90;;;-8.44;100.00;102147.63;5050262;28;20037;-75
2023/03/01 04:53:37;;;;;;;12.93;7.15;;;-6.50;99.90;;;-8.30;100.00;102160.38;5069236;28;20447;-78
2023/03/01 04:56:03;;;;;;;15.10;7.63;;;-6.40;99.90;;;-8.21;100.00;102164.47;5051560;28;20396;-76
2023/03/01 04:58:29;;;;;;;13.85;7.68;;;-6.30;99.90;;;-8.20;100.00;102156.44;5049305;28;20036;-77
2023/03/01 05:00:55;;;;;;;14.55;8.00;;;-6.30;99.90;;;-8.28;100.00;102153.22;5046502;28;20033;-77
2023/03/01 05:03:22;;;;;;;13.98;7.45;;;-6.40;99.90;;;-8.36;100.00;102161.44;5048590;28;20065;-77
2023/03/01 05:05:51;;;;;;;15.57;7.80;;;-6.50;99.90;;;-8.34;100.00;102164.06;5051725;28;20033;-77
2023/03/01 05:08:17;;;;;;;16.33;7.70;;;-6.50;99.90;;;-8.33;100.00;102161.34;5053005;28;20115;-77
2023/03/01 05:10:46;;;;;;;14.45;7.63;;;-6.40;99.90;;;-8.37;100.00;102146.47;5051704;28;20096;-77
2023/03/01 05:13:13;;;;;;;14.73;7.25;;;-6.40;99.90;;;-8.45;100.00;102145.91;5066996;28;20043;-77
2023/03/01 05:15:39;;;;;;;17.67;7.93;;;-6.50;99.90;;;-8.56;100.00;102143.69;5048364;28;20094;-77
2023/03/01 05:18:11;;;;;;;13.95;7.55;;;-6.60;99.90;;;-8.59;100.00;102147.28;5043494;28;20044;-77
2023/03/01 05:20:38;;;;;;;12.82;7.30;;;-6.70;99.90;;;-8.37;100.00;102141.19;5052275;28;20041;-77
2023/03/01 05:23:05;;;;;;;12.70;7.40;;;-6.60;99.90;;;-8.03;100.00;102129.31;5065325;28;20029;-77
2023/03/01 05:25:33;;;;;;;16.33;7.33;;;-6.40;99.90;;;-7.87;100.00;102136.66;5054023;28;20037;-77
2023/03/01 05:28:04;;;;;;;14.18;7.25;;;-6.20;99.90;;;-8.06;100.00;102121.47;5050738;28;20040;-77
2023/03/01 05:30:32;;;;;;;19.80;7.32;;;-6.20;99.90;;;-8.28;100.00;102132.03;5049262;28;20041;-77
2023/03/01 05:32:58;;;;;;;14.77;7.85;;;-6.40;99.90;;;-8.42;100.00;102137.84;5053039;28;20309;-77
2023/03/01 05:35:24;;;;;;;13.95;8.02;;;-6.50;99.90;;;-8.48;100.00;102135.44;5052134;28;20033;-78
2023/03/01 05:37:51;;;;;;;13.80;7.30;;;-6.60;99.90;;;-8.57;100.00;102129.56;5069976;28;20174;-78
2023/03/01 05:40:21;;;;;;;14.48;7.40;;;-6.60;99.90;;;-8.65;100.00;102134.28;5050866;28;20076;-77
2023/03/01 05:42:56;;;;;;;17.63;7.90;;;-6.70;99.90;;;-8.66;100.00;102132.56;5049091;28;20112;-77
2023/03/01 05:45:25;;;;;;;16.88;7.57;;;-6.70;99.90;;;-8.69;100.00;102127.38;5055347;28;20373;-76
2023/03/01 05:47:51;;;;;;;15.40;8.07;;;-6.70;99.90;;;-8.71;100.00;102126.59;5048768;28;20098;-76
2023/03/01 05:50:25;;;;;;;14.18;7.72;;;-6.70;99.90;;;-8.63;100.00;102135.09;5050323;28;20032;-77
2023/03/01 05:53:07;;;;;;;13.25;7.25;;;-6.70;99.90;;;-8.61;100.00;102135.06;5043869;28;20049;-76
2023/03/01 05:55:35;;;;;;;17.25;8.18;;;-6.60;99.90;;;-8.55;100.00;102135.66;5049699;28;20044;-76
2023/03/01 05:58:07;;;;;;;14.60;7.88;;;-6.60;99.90;;;-8.53;100.00;102128.53;5043697;28;20036;-77
2023/03/01 06:00:34;;;;;;;17.35;7.70;;;-6.50;99.90;;;-8.50;100.00;102132.88;5036546;28;20390;-76
2023/03/01 06:03:01;;;;;;;16.30;7.68;;;-6.50;99.90;;;-8.55;100.00;102133.03;5045021;28;20030;-75
2023/03/01 06:05:27;;;;;;;18.23;7.50;;;-6.50;99.90;;;-8.50;100.00;102129.34;5040691;28;20033;-77
2023/03/01 06:07:54;;;;;;;16.77;8.20;;;-6.60;99.90;;;-8.58;100.00;102130.50;5065422;28;20064;-75
2023/03/01 06:10:22;;;;;;;16.55;7.53;;;-6.70;99.90;;;-8.66;100.00;102135.22;5060980;28;20040;-76
2023/03/01 06:12:48;;;;;;;12.77;7.07;;;-6.80;99.90;;;-8.72;100.00;102132.78;5047279;28;20122;-77
2023/03/01 06:15:16;;;;;;;17.38;7.50;;;-6.80;99.90;;;-8.75;100.00;102131.09;5048958;28;20048;-77
2023/03/01 06:17:45;;;;;;;14.05;7.10;;;-6.80;99.90;;;-8.74;100.00;102134.63;5035431;28;20041;-77
2023/03/01 06:20:16;;;;;;;13.90;7.57;;;-6.90;99.90;;;-8.72;100.00;102132.78;5036372;28;20361;-77
2023/03/01 06:22:43;;;;;;;16.55;7.97;;;-6.80;99.90;;;-8.66;100.00;102135.22;5038892;28;20036;-77
2023/03/01 06:25:12;;;;;;;13.23;7.10;;;-6.70;99.90;;;-8.53;100.00;102139.13;5055444;28;20052;-77
2023/03/01 06:27:38;;;;;;;18.65;8.43;;;-6.70;99.90;;;-8.42;100.00;102135.22;5033661;28;20041;-77
2023/03/01 06:30:05;;;;;;;15.88;7.68;;;-6.50;99.90;;;-8.37;100.00;102136.75;5048458;28;20033;-77
2023/03/01 06:32:31;;;;;;;17.17;7.90;;;-6.40;99.90;;;-8.30;100.00;102140.03;5044616;28;20045;-76
2023/03/01 06:34:58;;;;;;;16.02;8.02;;;-6.40;99.90;;;-8.27;100.00;102139.06;5049187;28;20056;-77
2023/03/01 06:37:25;;;;;;;14.52;7.68;;;-6.40;99.90;;;-8.25;100.00;102148.66;5041390;28;20033;-74
2023/03/01 06:39:51;;;;;;;15.88;7.72;;;-6.40;99.90;;;-8.19;100.00;102147.56;5034724;28;20065;-75
2023/03/01 06:42:16;;;;;;;20.20;8.40;;;-6.30;99.90;;;-8.11;100.00;102140.19;5043219;28;20112;-77
2023/03/01 06:44:44;;;;;;;19.42;8.50;;;-6.30;99.90;;;-7.95;100.00;102139.63;5039654;28;20040;-78
2023/03/01 06:47:10;;;;;;;18.20;8.48;;;-6.10;99.90;;;-7.82;100.00;102138.22;5047852;28;20964;-77
2023/03/01 06:49:35;;;;;;;20.75;9.57;;;-6.00;99.90;;;-7.68;100.00;102147.41;5057423;28;20144;-77
2023/03/01 06:52:01;;;;;;;20.75;8.65;;;-5.90;99.90;;;-7.68;100.00;102140.31;5032048;28;20041;-77
2023/03/01 06:54:27;;;;;;;15.70;8.75;;;-5.80;99.90;;;-7.60;100.00;102150.59;5061813;28;20060;-78
2023/03/01 06:56:53;;;;;;;18.13;8.90;;;-5.80;99.90;;;-7.53;100.00;102151.22;5057231;28;20554;-78
2023/03/01 06:59:19;;;;;;;15.93;8.95;;;-5.70;99.90;;;-7.43;100.00;102147.25;5046928;28;20065;-78
2023/03/01 07:01:45;;;;;;;19.52;10.18;;;-5.60;99.90;;;-7.37;100.00;102141.72;5031798;28;20396;-79
2023/03/01 07:04:13;;;;;;;17.08;9.88;;;-5.50;99.90;;;-7.22;100.00;102149.97;5048262;28;20033;-78
2023/03/01 07:06:38;;;;;;;;;;;-5.40;99.90;;;-7.09;100.00;102150.31;5039420;28;20110;-77
2023/03/01 07:09:04;;;;;;;15.07;7.93;;;-5.20;99.90;;;-6.96;100.00;102153.31;5042354;28;19913;-78
2023/03/01 07:11:30;;;;;;;17.33;9.38;;;-5.10;99.90;;;-6.84;100.00;102144.81;5037713;28;20041;-78
2023/03/01 07:13:56;;;;;;;21.63;9.93;;;-5.00;99.90;;;-6.68;100.00;102136.19;5055520;28;20041;-78
2023/03/01 07:16:21;;;;;;;24.55;11.15;;;-4.90;99.90;;;-6.53;100.00;102140.81;5042622;28;20029;-78
2023/03/01 07:18:47;;;;;;;23.77;12.13;;;-4.70;99.90;;;-6.38;100.00;102136.59;5043773;28;20412;-78
2023/03/01 07:21:14;;;;;;;22.00;11.98;;;-4.60;99.90;;;-6.14;100.00;102133.75;5039712;28;20040;-77
2023/03/01 07:23:40;;;;;;;23.48;12.60;;;-4.40;99.90;;;-5.98;100.00;102130.34;5051622;28;20443;-77
2023/03/01 07:26:06;;;;;;;26.20;13.00;;;-4.20;99.90;;;-5.89;100.00;102135.22;5039427;28;20037;-76
2023/03/01 07:28:38;;;;;;;26.35;14.98;;;-4.10;99.90;;;-5.80;100.00;102131.28;5043289;28;20044;-77
2023/03/01 07:31:04;;;;;;;24.88;13.43;;;-4.00;99.90;;;-5.67;100.00;102136.88;5051918;28;20530;-77
2023/03/01 07:33:30;;;;;;;26.50;13.30;;;-3.90;99.90;;;-5.55;100.00;102130.94;5044758;28;20032;-77
2023/03/01 07:36:01;;;;;;;23.90;13.85;;;-3.80;99.90;;;-5.41;100.00;102124.09;5041593;28;20048;-77
2023/03/01 07:38:28;;;;;;;26.15;13.43;;;-3.70;99.90;;;-5.29;100.00;102118.13;5050410;28;20128;-78
2023/03/01 07:40:59;;;;;;;27.53;14.13;;;-3.50;99.90;;;-5.13;100.00;102120.03;5047965;28;20029;-77
2023/03/01 07:43:26;;;;;;;26.83;14.57;;;-3.40;99.90;;;-4.98;100.00;102123.72;5061038;28;20116;-78
2023/03/01 07:45:52;;;;;;;31.38;14.68;;;-3.30;99.90;;;-4.89;100.00;102117.91;5045877;28;20036;-77
2023/03/01 07:48:18;;;;;;;26.65;15.10;;;-3.10;99.90;;;-4.78;100.00;102110.19;5062703;28;20029;-77
2023/03/01 07:50:43;;;;;;;24.85;13.77;;;-3.00;99.90;;;-4.62;100.00;102106.75;5044354;28;20036;-77
2023/03/01 07:53:10;;;;;;;26.98;14.82;;;-2.90;99.90;;;-4.46;100.00;102113.94;5045911;28;20049;-78
2023/03/01 07:55:36;;;;;;;25.77;14.25;;;-2.70;99.90;;;-4.35;100.00;102125.72;5044588;28;20037;-78
2023/03/01 07:58:03;;;;;;;27.08;15.05;;;-2.60;99.90;;;-4.26;100.00;102132.34;5034384;28;20025;-79
2023/03/01 08:00:29;;;;;;;28.08;15.63;;;-2.50;99.90;;;-4.10;100.00;102134.19;5056543;28;20053;-78
2023/03/01 08:02:54;;;;;;;25.50;14.20;;;-2.40;99.90;;;-4.00;100.00;102135.38;5043164;28;20132;-78
2023/03/01 08:05:21;;;;;;;25.75;14.52;;;-2.30;99.90;;;-3.85;100.00;102143.50;5046940;28;20408;-78
2023/03/01 08:07:48;;;;;;;24.80;13.27;;;-2.20;99.90;;;-3.81;100.00;102134.38;5060522;28;20040;-79
2023/03/01 08:10:13;;;;;;;20.67;12.52;;;-2.10;99.90;;;-3.69;100.00;102140.81;5044454;28;20041;-78
2023/03/01 08:12:39;;;;;;;28.17;13.30;;;-2.00;99.90;;;-3.57;100.00;102137.47;5044629;28;20044;-78
2023/03/01 08:15:05;;;;;;;22.67;12.52;;;-1.90;99.90;;;-3.36;100.00;102146.03;5038699;28;20052;-78
2023/03/01 08:17:31;;;;;;;23.15;13.27;;;-1.70;99.90;;;-3.23;100.00;102142.66;5057311;28;20477;-79
2023/03/01 08:19:57;;;;;;;23.33;13.43;;;-1.60;99.90;;;-3.14;100.00;102136.78;5036183;28;20045;-78
2023/03/01 08:22:22;;;;;;;22.63;12.70;;;-1.50;99.90;;;-2.98;100.00;102141.19;5064534;28;20041;-78
2023/03/01 08:24:48;;;;;;;24.40;12.77;;;-1.40;99.90;;;-2.79;100.00;102143.63;5044342;28;20040;-77
2023/03/01 08:27:16;;;;;;;21.75;12.88;;;-1.20;99.90;;;-2.72;100.00;102141.44;5036672;28;20499;-78
2023/03/01 08:29:42;;;;;;;22.00;11.90;;;-1.10;99.90;;;-2.56;100.00;102131.56;5039520;28;20033;-79
2023/03/01 08:32:07;;;;;;;20.23;11.32;;;-1.00;99.90;;;-2.51;100.00;102133.94;5059010;28;20038;-78
2023/03/01 08:34:35;;;;;;;18.92;10.77;;;-0.90;99.90;;;-2.42;100.00;102133.38;5049414;28;20029;-79
2023/03/01 08:37:01;;;;;;;16.15;9.82;;;-0.80;99.90;;;-2.25;100.00;102126.97;5042322;28;20072;-78
2023/03/01 08:39:27;;;;;;;18.77;10.77;;;-0.70;99.90;;;-2.04;100.00;102123.91;5044829;28;20044;-78
2023/03/01 08:41:53;;;;;;;17.17;10.93;;;-0.60;99.90;;;-1.92;100.00;102125.78;5036015;28;20056;-78
2023/03/01 08:44:20;;;;;;;17.58;10.05;;;-0.40;99.90;;;-1.81;100.00;102124.25;5050962;28;20446;-77
2023/03/01 08:46:46;;;;;;;17.37;10.47;;;-0.30;99.90;;;-1.59;100.00;102123.69;5057403;28;20113;-77
2023/03/01 08:49:19;;;;;;;17.67;9.52;;;-0.10;99.90;;;-1.43;100.00;102131.56;5034630;28;20521;-77
2023/03/01 08:51:46;;;;;;;16.77;10.20;;;0.00;99.90;;;-1.33;100.00;102124.66;5036774;28;20036;-78
2023/03/01 08:54:19;;;;;;;16.17;9.32;;;0.20;99.90;;;-1.03;100.00;102136.94;5031363;28;20065;-79
2023/03/01 08:56:46;;;;;;;18.25;10.18;;;0.40;99.90;;;-0.84;100.00;102138.34;5040454;28;20049;-80
2023/03/01 08:59:14;;;;;;;17.63;9.25;;;0.60;99.90;;;-0.75;100.00;102135.06;5037644;28;20041;-81
2023/03/01 09:01:40;;;;;;;15.57;10.02;;;0.70;99.90;;;-0.62;100.00;102132.38;5046227;28;20043;-80
2023/03/01 09:04:06;;;;;;;18.10;9.45;;;0.80;99.90;;;-0.39;100.00;102129.03;5043354;28;20029;-80
2023/03/01 09:06:34;;;;;;;18.25;10.40;;;1.00;99.90;;;-0.21;100.00;102127.75;5041415;28;20041;-82
2023/03/01 09:09:00;;;;;;;17.50;9.70;;;1.20;99.90;;;-0.04;100.00;102128.34;5044978;28;20040;-80
2023/03/01 09:11:27;;;;;;;17.15;9.63;;;1.40;99.90;;;0.28;100.00;102125.16;5043710;28;20059;-80
2023/03/01 09:13:53;;;;;;;15.65;8.77;;;1.60;99.90;;;0.48;100.00;102112.06;5063061;28;20039;-79
2023/03/01 09:16:22;;;;;;;13.85;6.25;;;1.80;99.90;;;0.76;100.00;102113.56;5044222;28;20789;-79
2023/03/01 09:18:53;;;;;;;12.27;5.38;;;2.20;99.90;;;1.12;100.00;102102.78;5044254;28;20048;-83
2023/03/01 09:21:22;;;;;;;11.25;5.00;;;2.50;99.90;;;1.27;100.00;102085.44;5058675;28;20041;-81
2023/03/01 09:23:49;;;;;;;11.07;5.43;;;2.80;99.90;;;1.53;95.90;102087.91;5048760;28;20192;-80
2023/03/01 09:26:21;;;;;;;11.25;5.85;;;3.10;99.90;;;1.74;92.91;102084.50;5048929;28;20059;-79
2023/03/01 09:28:50;;;;;;;9.93;5.50;;;3.30;99.90;;;1.96;91.09;102088.16;5040694;28;20029;-80
2023/03/01 09:31:20;;;;;;;8.75;5.20;;;3.50;99.90;;;2.08;87.87;102075.53;5058308;28;20033;-78
2023/03/01 09:33:49;;;;;;;9.77;5.00;;;3.70;99.90;;;2.21;85.97;102076.22;5025983;28;20061;-79
2023/03/01 09:36:20;;;;;;;9.73;5.60;;;3.80;99.90;;;2.40;87.56;102070.16;5042438;28;20041;-79
2023/03/01 09:38:47;;;;;;;11.52;5.30;;;4.00;99.90;;;2.50;85.94;102062.16;5032188;28;20416;-78
2023/03/01 09:41:47;;;;;;;10.00;4.72;;;4.20;99.90;;;2.59;84.05;102071.31;5052528;28;20537;-81
2023/03/01 09:44:31;;;;;;;8.38;4.70;;;4.20;99.90;;;2.86;86.83;102084.28;5032431;28;20037;-80
2023/03/01 09:46:58;;;;;;;8.15;4.68;;;4.40;99.90;;;2.85;82.35;102066.41;5032387;28;20037;-80
2023/03/01 09:49:41;;;;;;;8.70;5.07;;;4.50;99.90;;;2.94;82.29;102066.59;5061592;28;20194;-80
2023/03/01 09:52:29;;;;;;;9.30;5.53;;;4.60;99.90;;;3.12;77.00;102050.66;5043781;28;20044;-79
2023/03/01 09:54:56;;;;;;;9.98;5.13;;;4.80;99.90;;;3.27;72.99;102049.34;5037491;28;20143;-79
2023/03/01 09:57:46;;;;;;;9.80;4.95;;;4.90;99.90;;;3.83;73.05;102057.94;5038461;28;20029;-79
2023/03/01 10:00:32;;;;;;;8.68;4.90;;;5.40;99.90;;;4.10;67.08;102053.75;5047163;28;20048;-79
2023/03/01 10:03:28;;;;;;;7.80;5.00;;;5.90;99.90;;;4.35;66.23;102059.59;5031152;28;20084;-79
2023/03/01 10:06:04;;;;;;;9.27;5.18;;;6.60;99.90;;;4.56;63.63;102051.34;5032898;28;20057;-79
2023/03/01 10:08:50;;;;;;;12.18;5.93;;;7.30;98.30;;;4.78;64.91;102056.63;5056163;28;20043;-80
2023/03/01 10:11:32;;;;;;;9.25;5.05;;;8.30;95.80;;;5.16;62.78;102035.91;5040039;28;20468;-80
2023/03/01 10:14:35;;;;;;;9.52;4.80;;;9.40;92.40;;;6.31;60.50;102051.88;5040267;28;20201;-80
2023/03/01 10:17:12;;;;;;;8.60;4.70;;;10.60;88.70;;;7.34;52.42;102016.03;5044889;28;20045;-79
2023/03/01 10:19:46;;;;;;;8.07;4.65;;;11.80;75.30;;;8.28;50.73;102026.00;5043619;28;20037;-80